Time;durP1;ratioP1;P1;durP2;ratioP2;P2;SDS_P1;SDS_P2;PMS_P1;PMS_P2;Temp;Humidity;BMP_temperature;BMP_pressure;BME280_temperature;BME280_humidity;BME280_pressure;Samples;Min_cycle;Max_cycle;Signal;HPM_P1;HPM_P2
2021/01/17 00:02:13;;;;;;;0.00;0.00;;;-0.70;99.90;;;;;;5015575;28;20210;-66
2021/01/17 00:04:39;;;;;;;0.00;0.00;;;-0.70;99.90;;;;;;5015954;28;20202;-66
2021/01/17 00:07:06;;;;;;;0.00;0.00;;;-0.70;99.90;;;;;;5015610;28;20198;-65
2021/01/17 00:09:32;;;;;;;0.00;0.00;;;-0.70;99.90;;;;;;5015707;28;20276;-66
2021/01/17 00:11:58;;;;;;;0.00;0.00;;;-0.70;99.90;;;;;;5015173;28;20198;-66
2021/01/17 00:14:25;;;;;;;0.00;0.00;;;-0.70;99.90;;;;;;5015684;28;20218;-66
2021/01/17 00:16:51;;;;;;;0.00;0.00;;;-0.70;99.90;;;;;;5015631;28;20201;-66
2021/01/17 00:19:17;;;;;;;0.00;0.00;;;-0.70;99.90;;;;;;5015417;28;20326;-65
2021/01/17 00:21:44;;;;;;;0.00;0.00;;;-0.70;99.90;;;;;;5015369;28;20575;-65
2021/01/17 00:24:11;;;;;;;0.00;0.00;;;-0.60;99.90;;;;;;5015369;28;20309;-66
2021/01/17 00:26:37;;;;;;;0.00;0.00;;;-0.60;99.90;;;;;;5015411;28;20667;-66
2021/01/17 00:29:03;;;;;;;0.00;0.00;;;-0.60;99.90;;;;;;5015445;28;20199;-66
2021/01/17 00:31:34;;;;;;;0.00;0.00;;;-0.70;99.90;;;;;;5015110;28;20198;-66
2021/01/17 00:34:01;;;;;;;0.00;0.00;;;-0.60;99.90;;;;;;5015398;28;20285;-66
2021/01/17 00:36:27;;;;;;;0.00;0.00;;;-0.70;99.90;;;;;;5015185;28;20195;-66
2021/01/17 00:38:53;;;;;;;0.00;0.00;;;-0.70;99.90;;;;;;5014967;28;20276;-66
2021/01/17 00:41:19;;;;;;;0.00;0.00;;;-0.60;99.90;;;;;;5014641;28;20199;-66
2021/01/17 00:43:46;;;;;;;0.00;0.00;;;-0.60;99.90;;;;;;5015353;28;20194;-66
2021/01/17 00:46:12;;;;;;;0.00;0.00;;;-0.60;99.90;;;;;;5015052;28;20199;-66
2021/01/17 00:48:39;;;;;;;0.00;0.00;;;-0.60;99.90;;;;;;5015204;28;20195;-66
2021/01/17 00:51:05;;;;;;;0.00;0.00;;;-0.60;99.90;;;;;;5014750;28;20215;-66
2021/01/17 00:53:31;;;;;;;0.00;0.00;;;-0.50;99.90;;;;;;5014749;28;20203;-66
2021/01/17 00:55:57;;;;;;;0.00;0.00;;;-0.60;92.10;;;;;;5016041;28;20202;-66
2021/01/17 00:58:23;;;;;;;0.00;0.00;;;-0.60;56.10;;;;;;5014710;28;20697;-66
2021/01/17 01:00:50;;;;;;;0.00;0.00;;;-0.60;99.90;;;;;;5014582;28;20226;-66
2021/01/17 01:03:16;;;;;;;0.00;0.00;;;-0.50;99.90;;;;;;5014862;28;20206;-65
2021/01/17 01:05:43;;;;;;;0.00;0.00;;;-0.50;99.90;;;;;;5014876;28;20205;-66
2021/01/17 01:08:09;;;;;;;0.00;0.00;;;-0.50;99.90;;;;;;5014591;28;20194;-66
2021/01/17 01:10:35;;;;;;;0.00;0.00;;;-0.50;50.10;;;;;;5014266;28;20222;-65
2021/01/17 01:13:01;;;;;;;0.00;0.00;;;-0.50;35.80;;;;;;5014749;28;20640;-66
2021/01/17 01:15:28;;;;;;;0.00;0.00;;;-0.50;56.60;;;;;;5014425;28;20198;-66
2021/01/17 01:17:54;;;;;;;0.00;0.00;;;-0.50;54.30;;;;;;5014545;28;20545;-66
2021/01/17 01:20:20;;;;;;;0.00;0.00;;;-0.50;98.90;;;;;;5014140;28;20245;-65
2021/01/17 01:22:47;;;;;;;0.00;0.00;;;-0.50;99.90;;;;;;5014349;28;20197;-66
2021/01/17 01:25:13;;;;;;;0.00;0.00;;;-0.50;99.90;;;;;;5014905;28;20597;-66
2021/01/17 01:27:39;;;;;;;0.00;0.00;;;-0.50;99.90;;;;;;5014548;28;20718;-66
2021/01/17 01:30:06;;;;;;;0.00;0.00;;;-0.50;99.90;;;;;;5014452;28;20269;-65
2021/01/17 01:32:32;;;;;;;0.00;0.00;;;-0.50;99.90;;;;;;5014999;28;20198;-65
2021/01/17 01:34:58;;;;;;;0.00;0.00;;;-0.50;99.90;;;;;;5014408;28;20208;-66
2021/01/17 01:37:24;;;;;;;0.00;0.00;;;-0.50;99.90;;;;;;5013880;28;20206;-65
2021/01/17 01:39:51;;;;;;;0.00;0.00;;;-0.50;99.90;;;;;;5014081;28;20222;-66
2021/01/17 01:42:17;;;;;;;0.00;0.00;;;-0.50;99.90;;;;;;5014726;28;20198;-65
2021/01/17 01:44:44;;;;;;;0.00;0.00;;;-0.50;99.90;;;;;;5017251;28;20572;-66
2021/01/17 01:47:21;;;;;;;0.00;0.00;;;-0.50;99.90;;;;;;5017015;28;20662;-66
2021/01/17 01:49:48;;;;;;;0.00;0.00;;;-0.60;99.90;;;;;;5016715;28;20214;-66
2021/01/17 01:52:15;;;;;;;0.00;0.00;;;-0.60;99.90;;;;;;5015216;28;20198;-65
2021/01/17 01:54:41;;;;;;;0.00;0.00;;;-0.60;99.90;;;;;;5013897;28;20205;-66
2021/01/17 01:57:09;;;;;;;0.00;0.00;;;-0.70;99.90;;;;;;5013768;28;20201;-65
2021/01/17 01:59:36;;;;;;;0.00;0.00;;;-0.70;1.00;;;;;;5013932;28;20272;-65
2021/01/17 02:02:06;;;;;;;0.00;0.00;;;-0.60;1.00;;;;;;5013158;28;20195;-66
2021/01/17 02:04:34;;;;;;;0.00;0.00;;;-0.60;99.90;;;;;;5013597;28;20206;-66
2021/01/17 02:07:22;;;;;;;0.00;0.00;;;-0.60;99.90;;;;;;5013227;28;20206;-65
2021/01/17 02:09:48;;;;;;;0.00;0.00;;;-0.60;99.90;;;;;;5013566;28;20218;-65
2021/01/17 02:12:24;;;;;;;0.00;0.00;;;-0.70;1.00;;;;;;5012947;28;20201;-65
2021/01/17 02:15:01;;;;;;;0.00;0.00;;;-0.70;1.00;;;;;;5013347;28;20204;-66
2021/01/17 02:17:29;;;;;;;0.00;0.00;;;-0.70;1.00;;;;;;5013405;28;20248;-66
2021/01/17 02:20:09;;;;;;;0.00;0.00;;;-0.60;1.00;;;;;;5013338;28;20281;-66
2021/01/17 02:22:43;;;;;;;0.00;0.00;;;-0.60;1.00;;;;;;5013076;28;20202;-65
2021/01/17 02:25:12;;;;;;;0.00;0.00;;;-0.70;1.00;;;;;;5013205;28;20662;-66
2021/01/17 02:27:39;;;;;;;0.00;0.00;;;-0.60;1.00;;;;;;5013190;28;20195;-66
2021/01/17 02:30:08;;;;;;;0.00;0.00;;;-0.60;1.00;;;;;;5013012;28;20222;-65
2021/01/17 02:32:38;;;;;;;0.00;0.00;;;-0.50;1.00;;;;;;5013158;28;20647;-65
2021/01/17 02:35:06;;;;;;;0.00;0.00;;;-0.60;1.00;;;;;;5013028;28;20209;-65
2021/01/17 02:37:39;;;;;;;0.00;0.00;;;-0.60;1.00;;;;;;5013055;28;20206;-66
2021/01/17 02:40:13;;;;;;;0.00;0.00;;;-0.60;1.00;;;;;;5012648;28;20226;-66
2021/01/17 02:42:41;;;;;;;0.00;0.00;;;-0.60;1.00;;;;;;5013449;28;20580;-66
2021/01/17 02:45:09;;;;;;;0.00;0.00;;;-0.60;1.00;;;;;;5013341;28;20621;-66
2021/01/17 02:47:35;;;;;;;0.00;0.00;;;-0.60;1.00;;;;;;5012784;28;20209;-66
2021/01/17 02:50:02;;;;;;;0.00;0.00;;;-0.60;61.60;;;;;;5012706;28;20210;-66
2021/01/17 02:52:35;;;;;;;0.00;0.00;;;-0.60;18.70;;;;;;5012206;28;20257;-65
2021/01/17 02:55:02;;;;;;;0.00;0.00;;;-0.60;1.00;;;;;;5012935;28;20203;-65
2021/01/17 02:57:34;;;;;;;0.00;0.00;;;-0.60;73.50;;;;;;5012626;28;20573;-66
2021/01/17 03:00:05;;;;;;;0.00;0.00;;;-0.50;99.90;;;;;;5012470;28;20222;-66
2021/01/17 03:02:34;;;;;;;0.00;0.00;;;-0.50;88.90;;;;;;5012239;28;20566;-66
2021/01/17 03:05:04;;;;;;;0.00;0.00;;;-0.50;1.00;;;;;;5012490;28;20205;-65
2021/01/17 03:07:32;;;;;;;0.00;0.00;;;-0.50;1.00;;;;;;5012934;28;20562;-65
2021/01/17 03:09:59;;;;;;;0.00;0.00;;;-0.50;1.00;;;;;;5012370;28;20241;-66
2021/01/17 03:12:25;;;;;;;0.00;0.00;;;-0.50;1.00;;;;;;5012093;28;20212;-66
2021/01/17 03:14:53;;;;;;;0.00;0.00;;;-0.60;1.00;;;;;;5012368;28;20198;-66
2021/01/17 03:17:20;;;;;;;0.00;0.00;;;-0.60;1.00;;;;;;5011626;28;20205;-66
2021/01/17 03:19:46;;;;;;;0.00;0.00;;;-0.60;1.00;;;;;;5012051;28;20764;-65
2021/01/17 03:22:12;;;;;;;0.00;0.00;;;-0.60;1.00;;;;;;5011883;28;20674;-65
2021/01/17 03:24:38;;;;;;;0.00;0.00;;;-0.60;1.00;;;;;;5012263;28;20701;-66
2021/01/17 03:27:05;;;;;;;0.00;0.00;;;-0.60;1.00;;;;;;5012174;28;20249;-66
2021/01/17 03:29:31;;;;;;;0.00;0.00;;;-0.50;1.00;;;;;;5012225;28;20219;-65
2021/01/17 03:31:57;;;;;;;0.00;0.00;;;-0.50;1.00;;;;;;5011669;28;20202;-65
2021/01/17 03:34:24;;;;;;;0.00;0.00;;;-0.50;1.00;;;;;;5012281;28;20227;-65
2021/01/17 03:36:50;;;;;;;0.00;0.00;;;-0.50;1.00;;;;;;5012184;28;20202;-66
2021/01/17 03:39:16;;;;;;;0.00;0.00;;;-0.50;1.00;;;;;;5012175;28;20775;-66
2021/01/17 03:41:42;;;;;;;0.00;0.00;;;-0.50;1.00;;;;;;5011908;28;20690;-66
2021/01/17 03:44:09;;;;;;;0.00;0.00;;;-0.50;1.00;;;;;;5012064;28;20207;-65
2021/01/17 03:46:35;;;;;;;0.00;0.00;;;-0.60;99.90;;;;;;5011876;28;20195;-66
2021/01/17 03:49:01;;;;;;;0.00;0.00;;;-0.60;99.90;;;;;;5012068;28;20197;-66
2021/01/17 03:51:28;;;;;;;0.00;0.00;;;-0.50;1.00;;;;;;5011915;28;20630;-65
2021/01/17 03:53:54;;;;;;;0.00;0.00;;;-0.50;1.00;;;;;;5012056;28;20264;-66
2021/01/17 03:56:20;;;;;;;0.00;0.00;;;-0.50;99.90;;;;;;5012055;28;20222;-66
2021/01/17 03:58:47;;;;;;;0.00;0.00;;;-0.50;99.90;;;;;;5012006;28;20265;-66
2021/01/17 04:01:13;;;;;;;0.00;0.00;;;-0.50;99.90;;;;;;5011406;28;20230;-66
2021/01/17 04:03:39;;;;;;;0.00;0.00;;;-0.50;99.90;;;;;;5012257;28;20199;-66
2021/01/17 04:06:06;;;;;;;0.00;0.00;;;-0.50;99.90;;;;;;5012187;28;20202;-66
2021/01/17 04:08:33;;;;;;;0.00;0.00;;;-0.50;99.90;;;;;;5012002;28;20198;-66
2021/01/17 04:10:59;;;;;;;0.00;0.00;;;-0.50;99.90;;;;;;5011425;28;20222;-66
2021/01/17 04:13:25;;;;;;;0.00;0.00;;;-0.50;99.90;;;;;;5011670;28;20202;-65
2021/01/17 04:15:51;;;;;;;0.00;0.00;;;-0.50;99.90;;;;;;5011656;28;20209;-66
2021/01/17 04:18:18;;;;;;;0.00;0.00;;;-0.50;99.90;;;;;;5011900;28;20203;-66
2021/01/17 04:20:44;;;;;;;0.00;0.00;;;-0.40;99.90;;;;;;5011762;28;20222;-66
2021/01/17 04:23:10;;;;;;;0.00;0.00;;;-0.40;99.90;;;;;;5012170;28;20206;-66
2021/01/17 04:25:37;;;;;;;0.00;0.00;;;-0.40;99.90;;;;;;5011952;28;20205;-66
2021/01/17 04:28:04;;;;;;;0.00;0.00;;;-0.40;99.90;;;;;;5011985;28;20203;-66
2021/01/17 04:30:34;;;;;;;0.00;0.00;;;-0.40;99.90;;;;;;5015638;28;20218;-66
2021/01/17 04:33:00;;;;;;;0.00;0.00;;;-0.40;99.90;;;;;;5016117;28;20252;-66
2021/01/17 04:35:26;;;;;;;0.00;0.00;;;-0.40;99.90;;;;;;5016160;28;20201;-66
2021/01/17 04:37:56;;;;;;;0.00;0.00;;;-0.40;99.90;;;;;;5015556;28;20206;-66
2021/01/17 04:40:23;;;;;;;0.00;0.00;;;-0.40;99.90;;;;;;5016861;28;20226;-65
2021/01/17 04:42:56;;;;;;;0.00;0.00;;;-0.40;99.90;;;;;;5021621;28;20249;-66
2021/01/17 04:45:23;;;;;;;0.00;0.00;;;-0.30;99.90;;;;;;5017043;28;20221;-66
2021/01/17 04:47:51;;;;;;;0.00;0.00;;;-0.30;99.90;;;;;;5016507;28;20202;-66
2021/01/17 04:50:17;;;;;;;0.00;0.00;;;-0.30;99.90;;;;;;5016422;28;20229;-66
2021/01/17 04:52:58;;;;;;;0.00;0.00;;;-0.30;99.90;;;;;;5016121;28;20205;-65
2021/01/17 04:55:24;;;;;;;0.00;0.00;;;-0.30;99.90;;;;;;5016269;28;20205;-66
2021/01/17 04:58:00;;;;;;;0.00;0.00;;;-0.30;99.90;;;;;;5016008;28;20229;-65
2021/01/17 05:00:30;;;;;;;0.00;0.00;;;-0.30;99.90;;;;;;5015095;28;20229;-66
2021/01/17 05:03:05;;;;;;;0.10;0.10;;;-0.20;99.90;;;;;;5014150;28;20681;-66
2021/01/17 05:05:40;;;;;;;0.00;0.00;;;-0.20;99.90;;;;;;5014837;28;20276;-65
2021/01/17 05:08:32;;;;;;;0.00;0.00;;;-0.30;99.90;;;;;;5014578;28;20202;-66
2021/01/17 05:11:05;;;;;;;0.10;0.10;;;-0.30;99.90;;;;;;5014344;28;20695;-66
2021/01/17 05:13:47;;;;;;;0.10;0.10;;;-0.30;99.90;;;;;;5014438;28;20229;-66
2021/01/17 05:16:15;;;;;;;0.10;0.10;;;-0.30;1.00;;;;;;5014358;28;20198;-66
2021/01/17 05:18:48;;;;;;;0.28;0.28;;;-0.30;1.00;;;;;;5014417;28;20613;-66
2021/01/17 05:21:20;;;;;;;2.20;2.20;;;-0.30;1.00;;;;;;5014083;28;20222;-65
2021/01/17 05:23:47;;;;;;;0.55;0.55;;;-0.30;1.00;;;;;;5014460;28;20209;-66
2021/01/17 05:26:14;;;;;;;0.52;0.52;;;-0.20;1.00;;;;;;5014297;28;20210;-65
2021/01/17 05:28:41;;;;;;;0.60;0.60;;;-0.20;1.00;;;;;;5014180;28;20197;-66
2021/01/17 05:31:07;;;;;;;0.95;0.95;;;-0.20;1.00;;;;;;5013829;28;20710;-65
2021/01/17 05:33:33;;;;;;;1.00;1.00;;;-0.20;1.00;;;;;;5014843;28;20625;-66
2021/01/17 05:36:00;;;;;;;1.33;1.33;;;-0.20;1.00;;;;;;5017329;28;20205;-66
2021/01/17 05:38:27;;;;;;;2.03;2.00;;;-0.20;1.00;;;;;;5013864;28;20732;-66
2021/01/17 05:40:54;;;;;;;1.05;1.05;;;-0.30;1.00;;;;;;5012853;28;20225;-66
2021/01/17 05:43:20;;;;;;;1.95;1.95;;;-0.20;92.00;;;;;;5013495;28;20205;-66
2021/01/17 05:45:47;;;;;;;3.28;3.17;;;-0.20;8.80;;;;;;5014116;28;20195;-66
2021/01/17 05:48:13;;;;;;;2.70;2.60;;;-0.20;32.50;;;;;;5013808;28;20206;-65
2021/01/17 05:50:44;;;;;;;3.10;3.00;;;-0.20;21.20;;;;;;5013435;28;20218;-65
2021/01/17 05:53:10;;;;;;;4.05;3.85;;;-0.20;99.90;;;;;;5013713;28;20198;-66
2021/01/17 05:55:37;;;;;;;4.03;3.83;;;-0.20;99.90;;;;;;5013788;28;20198;-66
2021/01/17 05:58:27;;;;;;;4.38;4.07;;;-0.20;99.90;;;;;;5013874;28;20206;-65
2021/01/17 06:00:56;;;;;;;6.35;5.85;;;-0.30;99.90;;;;;;5013140;28;20702;-66
2021/01/17 06:03:25;;;;;;;5.95;5.50;;;-0.20;99.90;;;;;;5013420;28;20740;-65
2021/01/17 06:05:58;;;;;;;5.03;4.72;;;-0.20;99.90;;;;;;5012944;28;20225;-66
2021/01/17 06:08:25;;;;;;;4.20;4.07;;;-0.10;99.90;;;;;;5013346;28;20297;-65
2021/01/17 06:10:54;;;;;;;4.93;4.68;;;-0.10;99.90;;;;;;5013122;28;20276;-66
2021/01/17 06:13:24;;;;;;;3.60;3.50;;;-0.20;99.90;;;;;;5013188;28;20715;-66
2021/01/17 06:15:51;;;;;;;5.70;5.30;;;-0.20;99.90;;;;;;5013335;28;20194;-65
2021/01/17 06:18:20;;;;;;;5.00;4.80;;;-0.20;99.90;;;;;;5013242;28;20207;-66
2021/01/17 06:20:47;;;;;;;5.93;5.43;;;-0.20;99.90;;;;;;5012666;28;21032;-66
2021/01/17 06:23:20;;;;;;;5.47;5.18;;;-0.20;1.00;;;;;;5013199;28;20566;-66
2021/01/17 06:25:46;;;;;;;5.60;5.10;;;-0.20;1.00;;;;;;5013273;28;20229;-66
2021/01/17 06:28:13;;;;;;;7.63;6.95;;;-0.20;1.00;;;;;;5012875;28;20737;-66
2021/01/17 06:30:41;;;;;;;7.22;6.70;;;-0.20;1.00;;;;;;5013092;28;20214;-66
2021/01/17 06:33:08;;;;;;;7.25;6.40;;;-0.20;1.00;;;;;;5012561;28;20198;-66
2021/01/17 06:35:37;;;;;;;6.78;6.22;;;-0.20;1.00;;;;;;5013614;28;20591;-66
2021/01/17 06:38:15;;;;;;;6.78;6.18;;;-0.10;1.00;;;;;;5014043;28;20198;-66
2021/01/17 06:40:42;;;;;;;7.38;6.78;;;-0.10;1.00;;;;;;5012908;28;20253;-66
2021/01/17 06:43:10;;;;;;;8.43;7.63;;;-0.10;1.00;;;;;;5012327;28;20195;-66
2021/01/17 06:45:38;;;;;;;8.18;7.38;;;-0.10;1.00;;;;;;5012704;28;20205;-65
2021/01/17 06:48:05;;;;;;;8.52;7.28;;;-0.10;1.00;;;;;;5013022;28;20197;-66
2021/01/17 06:50:32;;;;;;;7.78;7.07;;;-0.10;1.00;;;;;;5012722;28;20210;-65
2021/01/17 06:52:59;;;;;;;8.15;7.45;;;-0.10;1.00;;;;;;5012363;28;20206;-66
2021/01/17 06:55:25;;;;;;;12.95;8.35;;;-0.10;1.00;;;;;;5012805;28;20206;-66
2021/01/17 06:57:52;;;;;;;8.90;8.00;;;-0.10;1.00;;;;;;5012636;28;20204;-66
2021/01/17 07:00:19;;;;;;;8.75;8.00;;;-0.10;1.00;;;;;;5012460;28;20591;-66
2021/01/17 07:02:54;;;;;;;11.05;9.30;;;-0.20;1.00;;;;;;5012531;28;20569;-66
2021/01/17 07:05:42;;;;;;;9.18;8.40;;;-0.30;99.90;;;;;;5012887;28;20201;-65
2021/01/17 07:08:48;;;;;;;9.55;8.63;;;-0.20;99.90;;;;;;5013294;28;20233;-65
2021/01/17 07:11:36;;;;;;;11.48;10.32;;;-0.10;1.00;;;;;;5012356;28;20349;-66
2021/01/17 07:14:07;;;;;;;9.50;8.10;;;-0.10;99.90;;;;;;4998803;28;20730;-66
2021/01/17 07:16:34;;;;;;;11.80;9.00;;;0.00;1.00;;;;;;5012618;28;20216;-66
2021/01/17 07:19:08;;;;;;;9.40;8.38;;;0.00;1.00;;;;;;5012161;28;20215;-65
2021/01/17 07:21:38;;;;;;;9.73;8.50;;;-0.10;99.90;;;;;;5012341;28;20655;-66
2021/01/17 07:24:07;;;;;;;11.40;9.07;;;-0.10;1.00;;;;;;5012151;28;20194;-66
2021/01/17 07:27:02;;;;;;;10.80;9.55;;;0.00;1.00;;;;;;5012526;28;20202;-66
2021/01/17 07:29:28;;;;;;;11.63;10.50;;;-0.10;1.00;;;;;;5008713;28;20222;-66
2021/01/17 07:31:56;;;;;;;10.13;8.98;;;-0.10;1.00;;;;;;5012324;28;20210;-66
2021/01/17 07:34:22;;;;;;;12.27;8.95;;;0.00;1.00;;;;;;5012498;28;20202;-66
2021/01/17 07:36:49;;;;;;;10.23;8.80;;;0.10;37.40;;;;;;5012264;28;20293;-65
2021/01/17 07:39:20;;;;;;;16.17;10.15;;;0.00;1.00;;;;;;5012283;28;20249;-66
2021/01/17 07:41:49;;;;;;;13.85;10.52;;;0.10;9.30;;;;;;5011759;28;20210;-65
2021/01/17 07:44:17;;;;;;;12.95;11.00;;;0.10;1.00;;;;;;5012134;28;20202;-66
2021/01/17 07:46:43;;;;;;;10.95;8.90;;;0.20;1.00;;;;;;5012071;28;20202;-65
2021/01/17 07:49:12;;;;;;;14.50;9.93;;;0.20;1.00;;;;;;5012316;28;20194;-66
2021/01/17 07:51:38;;;;;;;13.75;11.52;;;0.20;1.00;;;;;;5011763;28;20248;-66
2021/01/17 07:54:09;;;;;;;10.57;8.77;;;0.20;1.00;;;;;;5011828;28;20199;-66
2021/01/17 07:56:37;;;;;;;9.77;8.77;;;0.20;1.00;;;;;;5011741;28;20198;-66
2021/01/17 07:59:05;;;;;;;11.60;9.52;;;0.30;1.00;;;;;;5011737;28;20638;-66
2021/01/17 08:01:48;;;;;;;11.73;9.93;;;0.30;1.00;;;;;;5011471;28;20205;-65
2021/01/17 08:04:24;;;;;;;9.57;8.38;;;0.30;99.90;;;;;;5013874;28;20217;-66
2021/01/17 08:06:54;;;;;;;12.57;8.65;;;0.30;99.90;;;;;;5015712;28;20245;-66
2021/01/17 08:09:44;;;;;;;13.05;10.35;;;0.30;1.00;;;;;;5015852;28;20218;-66
2021/01/17 08:12:10;;;;;;;12.55;9.70;;;0.30;99.90;;;;;;5015378;28;20269;-66
2021/01/17 08:14:40;;;;;;;10.95;8.55;;;0.30;1.00;;;;;;5015418;28;20748;-66
2021/01/17 08:17:11;;;;;;;16.05;10.30;;;0.40;99.90;;;;;;5015635;28;20609;-65
2021/01/17 08:19:43;;;;;;;14.55;10.82;;;0.40;99.90;;;;;;5015302;28;20757;-65
2021/01/17 08:22:45;;;;;;;13.07;10.40;;;0.40;99.90;;;;;;5015345;28;20241;-66
2021/01/17 08:25:28;;;;;;;9.43;8.30;;;0.40;99.90;;;;;;5015627;28;20198;-66
2021/01/17 08:27:54;;;;;;;9.43;7.95;;;0.40;99.90;;;;;;5006582;28;20199;-66
2021/01/17 08:30:24;;;;;;;13.10;10.00;;;0.50;99.90;;;;;;5015362;28;20214;-66
2021/01/17 08:32:52;;;;;;;13.88;10.23;;;0.40;99.90;;;;;;5014848;28;20207;-66
2021/01/17 08:35:35;;;;;;;10.05;9.02;;;0.40;99.90;;;;;;5015730;28;20199;-65
2021/01/17 08:38:19;;;;;;;10.85;9.25;;;0.40;99.90;;;;;;5017537;28;20194;-65
2021/01/17 08:40:51;;;;;;;12.25;9.80;;;0.40;1.00;;;;;;5017160;28;20310;-66
2021/01/17 08:43:18;;;;;;;11.95;8.93;;;0.40;1.00;;;;;;5019224;28;20194;-66
2021/01/17 08:45:46;;;;;;;11.35;10.15;;;0.40;1.00;;;;;;5017516;28;20203;-66
2021/01/17 08:48:25;;;;;;;13.50;9.75;;;0.50;1.00;;;;;;5015944;28;20203;-66
2021/01/17 08:50:53;;;;;;;14.63;9.68;;;0.50;1.00;;;;;;5014615;28;20214;-66
2021/01/17 08:53:29;;;;;;;12.00;10.50;;;0.50;1.60;;;;;;5014526;28;20205;-66
2021/01/17 08:56:03;;;;;;;11.57;9.40;;;0.60;1.00;;;;;;5014802;28;20204;-66
2021/01/17 08:58:47;;;;;;;12.13;9.50;;;0.60;1.00;;;;;;5014846;28;20194;-66
2021/01/17 09:01:15;;;;;;;15.30;9.80;;;0.60;1.00;;;;;;5013992;28;20234;-66
2021/01/17 09:03:57;;;;;;;9.77;8.88;;;0.70;1.00;;;;;;5014655;28;20195;-65
2021/01/17 09:06:33;;;;;;;10.43;8.40;;;0.70;46.00;;;;;;5014771;28;20234;-66
2021/01/17 09:09:09;;;;;;;10.80;8.95;;;0.80;13.70;;;;;;5014350;28;20222;-66
2021/01/17 09:11:37;;;;;;;10.27;9.00;;;0.90;90.60;;;;;;5013890;28;20574;-65
2021/01/17 09:14:27;;;;;;;9.52;8.63;;;0.90;1.00;;;;;;5014441;28;20210;-66
2021/01/17 09:16:56;;;;;;;9.30;8.25;;;0.90;1.00;;;;;;5013783;28;20212;-66
2021/01/17 09:19:26;;;;;;;11.02;9.98;;;1.00;99.90;;;;;;5007663;28;20764;-65
2021/01/17 09:21:54;;;;;;;9.70;8.75;;;1.00;1.00;;;;;;5013610;28;20254;-66
2021/01/17 09:24:22;;;;;;;9.95;8.00;;;1.10;1.00;;;;;;5014109;28;20206;-68
2021/01/17 09:26:50;;;;;;;10.85;9.75;;;1.00;1.00;;;;;;5014127;28;20207;-67
2021/01/17 09:29:31;;;;;;;14.55;9.50;;;1.10;1.00;;;;;;5013868;28;20249;-68
2021/01/17 09:32:06;;;;;;;9.07;8.10;;;1.20;1.00;;;;;;5013762;28;20205;-67
2021/01/17 09:34:34;;;;;;;7.72;7.00;;;1.10;99.90;;;;;;5013548;28;20203;-67
2021/01/17 09:37:02;;;;;;;11.20;9.05;;;1.20;99.90;;;;;;5014519;28;20203;-67
2021/01/17 09:39:36;;;;;;;14.02;10.43;;;1.20;99.90;;;;;;5013275;28;20223;-67
2021/01/17 09:42:05;;;;;;;10.70;9.60;;;1.20;99.90;;;;;;5013460;28;20205;-67
2021/01/17 09:44:32;;;;;;;10.63;8.50;;;1.30;99.90;;;;;;5013325;28;20236;-65
2021/01/17 09:46:59;;;;;;;8.40;7.60;;;1.30;99.90;;;;;;5013281;28;20257;-67
2021/01/17 09:49:28;;;;;;;8.32;7.25;;;1.40;99.90;;;;;;5013485;28;20222;-67
2021/01/17 09:51:55;;;;;;;8.90;8.00;;;1.30;1.00;;;;;;5013471;28;20203;-67
2021/01/17 09:54:21;;;;;;;11.85;10.32;;;1.20;1.00;;;;;;5013387;28;20202;-66
2021/01/17 09:56:48;;;;;;;11.55;8.60;;;1.30;52.90;;;;;;5013435;28;20191;-66
2021/01/17 09:59:19;;;;;;;12.73;9.75;;;1.30;99.90;;;;;;5012914;28;20269;-66
2021/01/17 10:01:46;;;;;;;11.98;9.30;;;1.30;99.90;;;;;;5012540;28;20485;-66
2021/01/17 10:04:24;;;;;;;11.25;9.40;;;1.30;99.90;;;;;;5011918;28;20313;-65
2021/01/17 10:06:56;;;;;;;9.98;8.80;;;1.40;99.90;;;;;;5013170;28;20202;-65
2021/01/17 10:09:24;;;;;;;11.88;9.73;;;1.40;99.90;;;;;;5012835;28;20218;-66
2021/01/17 10:11:55;;;;;;;10.70;9.45;;;1.40;99.90;;;;;;5012400;28;20210;-67
2021/01/17 10:14:23;;;;;;;10.23;8.85;;;1.50;77.80;;;;;;5012606;28;20218;-67
2021/01/17 10:16:50;;;;;;;10.73;9.43;;;1.50;99.90;;;;;;5013150;28;20199;-65
2021/01/17 10:19:17;;;;;;;12.50;9.70;;;1.50;1.00;;;;;;5012650;28;20702;-65
2021/01/17 10:21:44;;;;;;;11.88;9.75;;;1.40;1.00;;;;;;5012798;28;20260;-66
2021/01/17 10:24:11;;;;;;;10.50;9.20;;;1.50;99.90;;;;;;5012720;28;20222;-66
2021/01/17 10:26:38;;;;;;;14.32;9.48;;;1.60;99.90;;;;;;5012352;28;20691;-66
2021/01/17 10:29:06;;;;;;;9.75;8.75;;;1.60;99.90;;;;;;5012492;28;20196;-65
2021/01/17 10:31:36;;;;;;;11.57;9.75;;;1.70;68.90;;;;;;5012253;28;20587;-66
2021/01/17 10:34:03;;;;;;;10.40;9.32;;;1.70;20.80;;;;;;5012787;28;20292;-65
2021/01/17 10:36:29;;;;;;;10.38;9.10;;;1.80;1.00;;;;;;5012687;28;20774;-65
2021/01/17 10:38:56;;;;;;;7.75;6.78;;;1.70;1.00;;;;;;5012360;28;20202;-66
2021/01/17 10:41:26;;;;;;;9.25;8.13;;;1.70;99.90;;;;;;5011999;28;20639;-65
2021/01/17 10:44:02;;;;;;;10.75;8.05;;;1.80;99.90;;;;;;5012579;28;20273;-65
2021/01/17 10:46:29;;;;;;;10.85;9.15;;;1.80;99.90;;;;;;5012427;28;20248;-65
2021/01/17 10:49:03;;;;;;;5.25;4.78;;;1.80;99.90;;;;;;5012488;28;20205;-65
2021/01/17 10:51:35;;;;;;;0.00;0.00;;;1.80;99.90;;;;;;5011807;28;20207;-66
2021/01/17 10:54:05;;;;;;;0.00;0.00;;;1.80;99.90;;;;;;5012514;28;20198;-65
2021/01/17 10:56:33;;;;;;;0.00;0.00;;;1.80;99.90;;;;;;5012108;28;20194;-66
2021/01/17 10:58:59;;;;;;;0.00;0.00;;;1.80;99.90;;;;;;5012147;28;20617;-66
2021/01/17 11:01:35;;;;;;;0.00;0.00;;;2.00;1.00;;;;;;5011954;28;20671;-66
2021/01/17 11:04:01;;;;;;;4.50;3.75;;;2.10;99.90;;;;;;5013999;28;20203;-64
2021/01/17 11:06:29;;;;;;;13.15;10.35;;;2.00;41.40;;;;;;5012237;28;20203;-65
2021/01/17 11:08:57;;;;;;;17.48;12.63;;;2.00;33.60;;;;;;5012251;28;20292;-65
2021/01/17 11:11:25;;;;;;;12.13;8.85;;;1.90;1.00;;;;;;5011862;28;20203;-64
2021/01/17 11:14:02;;;;;;;17.13;12.15;;;1.90;1.00;;;;;;5012249;28;20218;-65
2021/01/17 11:16:35;;;;;;;14.93;9.88;;;1.90;33.70;;;;;;5011871;28;20209;-67
2021/01/17 11:19:02;;;;;;;15.35;11.35;;;1.90;27.30;;;;;;5012497;28;20913;-67
2021/01/17 11:21:30;;;;;;;15.20;11.00;;;1.90;99.90;;;;;;5014307;28;20696;-67
2021/01/17 11:23:56;;;;;;;15.30;12.48;;;2.00;99.90;;;;;;5020293;28;20195;-67
2021/01/17 11:26:23;;;;;;;12.80;11.18;;;2.00;99.90;;;;;;5012669;28;20258;-66
2021/01/17 11:28:53;;;;;;;15.85;10.93;;;2.10;99.90;;;;;;5011801;28;20206;-67
2021/01/17 11:31:21;;;;;;;13.75;10.30;;;2.10;73.50;;;;;;5011511;28;20187;-67
2021/01/17 11:33:48;;;;;;;15.45;11.00;;;2.20;15.30;;;;;;5011983;28;20225;-66
2021/01/17 11:36:18;;;;;;;13.80;10.90;;;2.10;1.00;;;;;;5012059;28;20207;-65
2021/01/17 11:38:46;;;;;;;15.13;11.93;;;2.10;1.00;;;;;;5014017;28;20200;-68
2021/01/17 11:41:14;;;;;;;13.02;10.30;;;2.10;99.90;;;;;;5010914;28;20221;-66
2021/01/17 11:43:41;;;;;;;13.57;10.57;;;2.20;99.90;;;;;;5011983;28;20682;-66
2021/01/17 11:46:09;;;;;;;13.02;10.43;;;2.30;99.90;;;;;;5011888;28;20252;-66
2021/01/17 11:48:38;;;;;;;12.02;10.05;;;2.30;99.90;;;;;;5011900;28;20273;-66
2021/01/17 11:51:05;;;;;;;12.20;10.32;;;2.30;99.90;;;;;;4999728;23;20241;-66
2021/01/17 11:53:32;;;;;;;11.05;9.73;;;2.40;99.90;;;;;;4992023;28;20202;-65
2021/01/17 11:55:59;;;;;;;16.27;9.98;;;2.40;99.90;;;;;;4992445;28;20213;-65
2021/01/17 11:58:26;;;;;;;14.90;12.20;;;2.40;99.90;;;;;;4991991;28;20669;-66
2021/01/17 12:00:55;;;;;;;12.15;10.85;;;2.30;99.90;;;;;;4991757;28;20921;-66
2021/01/17 12:03:23;;;;;;;15.93;12.23;;;2.40;99.90;;;;;;4991904;28;20229;-65
2021/01/17 12:05:58;;;;;;;15.85;11.32;;;2.50;99.90;;;;;;4992402;28;20205;-65
2021/01/17 12:08:24;;;;;;;13.90;11.68;;;2.50;99.90;;;;;;4991871;28;20199;-66
2021/01/17 12:10:54;;;;;;;15.50;11.43;;;2.60;99.90;;;;;;4991575;28;20217;-65
2021/01/17 12:13:20;;;;;;;12.70;9.93;;;2.70;99.90;;;;;;4991867;28;20232;-65
2021/01/17 12:15:47;;;;;;;16.02;12.30;;;2.60;99.90;;;;;;4991943;28;20199;-66
2021/01/17 12:18:13;;;;;;;13.75;12.25;;;2.70;99.90;;;;;;4991912;28;20207;-66
2021/01/17 12:20:40;;;;;;;13.55;10.98;;;2.70;99.90;;;;;;4991318;28;20256;-64
2021/01/17 12:23:07;;;;;;;15.90;12.60;;;2.70;99.90;;;;;;4991349;28;20201;-66
2021/01/17 12:25:33;;;;;;;15.68;12.75;;;2.60;99.90;;;;;;4992123;28;20206;-65
2021/01/17 12:27:59;;;;;;;15.18;11.10;;;2.60;99.90;;;;;;4991983;28;20236;-65
2021/01/17 12:30:25;;;;;;;13.63;10.43;;;2.60;99.90;;;;;;4991507;28;20635;-66
2021/01/17 12:32:52;;;;;;;13.40;10.73;;;2.50;99.90;;;;;;4991901;28;20227;-69
2021/01/17 12:35:18;;;;;;;12.65;11.32;;;2.50;1.00;;;;;;4992193;28;20248;-69
2021/01/17 12:37:44;;;;;;;14.95;10.35;;;2.40;1.00;;;;;;4991662;28;20200;-67
2021/01/17 12:40:12;;;;;;;12.48;10.13;;;2.40;99.90;;;;;;4991595;28;20229;-67
2021/01/17 12:42:38;;;;;;;12.98;10.00;;;2.40;99.20;;;;;;4992410;28;20359;-69
2021/01/17 12:45:06;;;;;;;20.80;11.43;;;2.30;99.90;;;;;;4993240;28;20195;-65
2021/01/17 12:47:32;;;;;;;14.50;11.02;;;2.40;1.00;;;;;;4992072;28;20200;-66
2021/01/17 12:49:58;;;;;;;13.93;10.65;;;2.50;1.00;;;;;;4992786;28;20224;-66
2021/01/17 12:52:24;;;;;;;15.23;11.25;;;2.50;1.00;;;;;;4994874;28;20229;-66
2021/01/17 12:54:51;;;;;;;14.85;10.88;;;2.50;1.00;;;;;;4995434;28;20266;-68
2021/01/17 12:57:18;;;;;;;13.90;10.27;;;2.50;1.00;;;;;;4995286;28;20546;-67
2021/01/17 12:59:44;;;;;;;14.75;10.25;;;2.40;1.00;;;;;;5006098;23;20763;-66
2021/01/17 13:02:10;;;;;;;13.85;11.20;;;2.40;1.00;;;;;;5014468;28;20825;-67